createdAt,value
2018-11-14T00:00:13.587Z,6.03
2018-11-14T00:02:42.134Z,5.80
2018-11-14T00:05:10.798Z,5.23
2018-11-14T00:07:39.341Z,6.93
2018-11-14T00:10:08.480Z,6.10
2018-11-14T00:12:37.106Z,8.47
2018-11-14T00:15:07.150Z,7.63
2018-11-14T00:17:35.634Z,6.77
2018-11-14T00:20:04.798Z,5.77
2018-11-14T00:22:33.258Z,5.50
2018-11-14T00:25:01.771Z,5.87
2018-11-14T00:27:30.343Z,6.70
2018-11-14T00:29:58.848Z,5.60
2018-11-14T00:32:27.325Z,5.27
2018-11-14T00:34:55.822Z,6.20
2018-11-14T00:37:24.259Z,6.77
2018-11-14T00:39:52.705Z,5.80
2018-11-14T00:42:21.169Z,7.80
2018-11-14T00:44:49.648Z,6.67
2018-11-14T00:47:18.118Z,6.40
2018-11-14T00:49:46.575Z,6.10
2018-11-14T00:52:15.033Z,6.07
2018-11-14T00:54:43.497Z,6.50
2018-11-14T00:57:11.990Z,6.73
2018-11-14T00:59:40.648Z,6.80
2018-11-14T01:02:09.152Z,5.17
2018-11-14T01:04:37.610Z,5.43
2018-11-14T01:07:06.182Z,5.33
2018-11-14T01:09:34.817Z,6.40
2018-11-14T01:12:03.466Z,7.63
2018-11-14T01:14:31.988Z,6.47
2018-11-14T01:17:00.440Z,5.30
2018-11-14T01:19:28.917Z,7.23
2018-11-14T01:21:57.390Z,5.30
2018-11-14T01:24:25.860Z,5.63
2018-11-14T01:26:54.387Z,5.40
2018-11-14T01:29:22.829Z,5.93
2018-11-14T01:31:51.312Z,5.63
2018-11-14T01:34:19.789Z,5.63
2018-11-14T01:36:48.366Z,5.27
2018-11-14T01:39:16.851Z,7.13
2018-11-14T01:41:45.298Z,5.53
2018-11-14T01:44:13.781Z,6.23
2018-11-14T01:46:42.233Z,5.33
2018-11-14T01:49:11.046Z,5.30
2018-11-14T01:51:39.510Z,5.57
2018-11-14T01:54:07.973Z,6.20
2018-11-14T01:56:36.459Z,6.13
2018-11-14T01:59:05.008Z,5.30
2018-11-14T02:01:33.465Z,5.70
2018-11-14T02:04:01.935Z,5.83
2018-11-14T02:06:30.433Z,5.17
2018-11-14T02:08:58.922Z,5.37
2018-11-14T02:11:27.425Z,5.83
2018-11-14T02:13:55.905Z,4.87
2018-11-14T02:16:24.366Z,4.40
2018-11-14T02:18:52.865Z,4.40
2018-11-14T02:21:21.350Z,4.80
2018-11-14T02:23:49.810Z,4.10
2018-11-14T02:26:18.275Z,4.77
2018-11-14T02:28:46.720Z,5.47
2018-11-14T02:31:15.202Z,5.77
2018-11-14T02:33:43.651Z,5.53
2018-11-14T02:36:12.097Z,4.50
2018-11-14T02:38:40.613Z,5.47
2018-11-14T02:41:09.053Z,4.87
2018-11-14T02:43:37.517Z,4.87
2018-11-14T02:46:05.986Z,4.80
2018-11-14T02:48:34.450Z,4.90
2018-11-14T02:51:16.084Z,5.30
2018-11-14T02:53:44.542Z,4.97
2018-11-14T02:56:13.037Z,4.77
2018-11-14T02:58:41.581Z,5.27
2018-11-14T03:01:10.049Z,4.73
2018-11-14T03:03:38.529Z,4.77
2018-11-14T03:06:07.006Z,4.20
2018-11-14T03:08:35.491Z,4.63
2018-11-14T03:11:04.017Z,4.03
2018-11-14T03:13:32.484Z,4.63
2018-11-14T03:16:01.055Z,4.03
2018-11-14T03:18:29.500Z,4.43
2018-11-14T03:20:57.968Z,4.47
2018-11-14T03:23:26.445Z,4.97
2018-11-14T03:25:54.904Z,4.30
2018-11-14T03:28:23.389Z,4.60
2018-11-14T03:30:51.854Z,4.20
2018-11-14T03:33:20.340Z,3.87
2018-11-14T03:35:54.166Z,2.97
2018-11-14T03:38:22.668Z,4.23
2018-11-14T03:40:51.345Z,4.50
2018-11-14T03:43:19.911Z,3.93
2018-11-14T03:45:48.458Z,3.70
2018-11-14T03:48:16.921Z,4.00
2018-11-14T03:50:45.456Z,3.70
2018-11-14T03:53:13.917Z,4.27
2018-11-14T03:55:42.462Z,3.53
2018-11-14T03:58:11.055Z,3.13
2018-11-14T04:00:39.551Z,3.60
2018-11-14T04:03:08.033Z,4.40
2018-11-14T04:05:36.552Z,4.13
2018-11-14T04:08:05.145Z,3.93
2018-11-14T04:10:33.638Z,3.77
2018-11-14T04:13:02.096Z,3.53
2018-11-14T04:15:30.609Z,4.43
2018-11-14T04:17:59.083Z,3.07
2018-11-14T04:20:27.533Z,3.40
2018-11-14T04:22:55.985Z,3.33
2018-11-14T04:25:24.436Z,2.90
2018-11-14T04:27:52.898Z,2.97
2018-11-14T04:30:22.540Z,2.57
2018-11-14T04:32:51.021Z,2.80
2018-11-14T04:35:20.353Z,4.37
2018-11-14T04:37:48.832Z,3.07
2018-11-14T04:40:19.442Z,3.20
2018-11-14T04:42:47.913Z,4.40
2018-11-14T04:45:18.949Z,4.07
2018-11-14T04:47:47.506Z,4.03
2018-11-14T04:50:18.062Z,4.20
2018-11-14T04:52:47.317Z,4.23
2018-11-14T04:55:17.032Z,4.40
2018-11-14T04:57:46.492Z,5.00
2018-11-14T05:00:15.909Z,4.93
2018-11-14T05:02:45.086Z,5.53
2018-11-14T05:05:15.036Z,6.27
2018-11-14T05:07:43.512Z,6.40
2018-11-14T05:10:14.531Z,5.77
2018-11-14T05:12:44.115Z,5.40
2018-11-14T05:15:14.765Z,5.77
2018-11-14T05:17:44.605Z,5.37
2018-11-14T05:20:14.274Z,5.87
2018-11-14T05:22:43.356Z,5.20
2018-11-14T05:25:12.737Z,5.63
2018-11-14T05:27:41.700Z,6.23
2018-11-14T05:30:14.716Z,5.43
2018-11-14T05:32:44.519Z,5.57
2018-11-14T05:35:25.718Z,5.13
2018-11-14T05:37:54.259Z,4.87
2018-11-14T05:40:23.303Z,5.53
2018-11-14T05:42:52.572Z,5.27
2018-11-14T05:45:23.808Z,5.13
2018-11-14T05:47:53.052Z,4.60
2018-11-14T05:50:22.984Z,4.80
2018-11-14T05:52:51.508Z,4.77
2018-11-14T05:55:20.033Z,5.55
2018-11-14T05:57:48.906Z,7.12
2018-11-14T06:00:21.982Z,4.33
2018-11-14T06:02:57.379Z,4.00
2018-11-14T06:05:26.013Z,4.17
2018-11-14T06:07:54.834Z,3.97
2018-11-14T06:10:23.391Z,6.55
2018-11-14T06:12:51.919Z,4.37
2018-11-14T06:15:21.536Z,4.37
2018-11-14T06:17:51.244Z,5.43
2018-11-14T06:20:21.167Z,4.67
2018-11-14T06:22:50.619Z,5.40
2018-11-14T06:25:27.186Z,5.00
2018-11-14T06:27:56.675Z,5.10
2018-11-14T06:30:25.449Z,5.03
2018-11-14T06:32:54.545Z,4.13
2018-11-14T06:35:23.892Z,4.13
2018-11-14T06:37:53.183Z,3.67
2018-11-14T06:40:21.920Z,3.40
2018-11-14T06:42:50.464Z,4.67
2018-11-14T06:45:20.058Z,3.70
2018-11-14T06:47:49.648Z,4.70
2018-11-14T06:50:18.180Z,4.30
2018-11-14T06:52:47.866Z,4.23
2018-11-14T06:55:17.290Z,4.20
2018-11-14T06:57:45.858Z,3.27
2018-11-14T07:00:18.907Z,3.00
2018-11-14T07:02:48.008Z,5.07
2018-11-14T07:05:17.643Z,5.90
2018-11-14T07:07:46.459Z,4.77
2018-11-14T07:10:19.953Z,4.40
2018-11-14T07:12:48.435Z,3.53
2018-11-14T07:15:19.042Z,3.37
2018-11-14T07:17:48.327Z,3.33
2018-11-14T07:20:22.443Z,4.17
2018-11-14T07:22:50.936Z,5.63
2018-11-14T07:25:19.397Z,4.47
2018-11-14T07:27:47.850Z,3.73
2018-11-14T07:30:19.610Z,2.80
2018-11-14T07:32:49.431Z,2.80
2018-11-14T07:35:18.461Z,2.20
2018-11-14T07:38:52.588Z,3.10
2018-11-14T07:41:26.494Z,3.03
2018-11-14T07:43:55.098Z,3.00
2018-11-14T07:46:24.577Z,2.90
2018-11-14T07:48:53.088Z,3.57
2018-11-14T07:51:21.691Z,2.90
2018-11-14T07:53:50.420Z,3.00
2018-11-14T07:56:18.936Z,3.40
2018-11-14T07:58:47.483Z,3.90
2018-11-14T08:01:16.034Z,4.13
2018-11-14T08:03:44.893Z,4.23
2018-11-14T08:06:13.429Z,3.73
2018-11-14T08:08:42.117Z,4.10
2018-11-14T08:11:10.621Z,4.13
2018-11-14T08:13:40.750Z,4.13
2018-11-14T08:16:09.218Z,4.67
2018-11-14T08:18:37.708Z,5.17
2018-11-14T08:21:06.579Z,5.13
2018-11-14T08:23:35.121Z,6.07
2018-11-14T08:26:03.610Z,6.03
2018-11-14T08:28:32.081Z,5.63
2018-11-14T08:31:00.558Z,5.73
2018-11-14T08:33:29.087Z,6.17
2018-11-14T08:35:57.523Z,5.40
2018-11-14T08:38:26.061Z,5.50
2018-11-14T08:40:54.602Z,6.60
2018-11-14T08:43:23.069Z,5.93
2018-11-14T08:45:51.522Z,6.13
2018-11-14T08:48:20.031Z,7.10
2018-11-14T08:50:48.489Z,7.97
2018-11-14T08:53:17.004Z,6.10
2018-11-14T08:55:45.573Z,6.73
2018-11-14T08:58:14.274Z,8.50
2018-11-14T09:00:42.997Z,10.03
2018-11-14T09:03:12.942Z,9.57
2018-11-14T09:05:41.486Z,8.73
2018-11-14T09:08:10.037Z,9.03
2018-11-14T09:10:38.568Z,10.10
2018-11-14T09:13:11.501Z,11.63
2018-11-14T09:15:40.049Z,10.57
2018-11-14T09:18:08.566Z,11.40
2018-11-14T09:20:37.018Z,11.90
2018-11-14T09:23:06.040Z,12.13
2018-11-14T09:25:34.563Z,11.10
2018-11-14T09:28:03.432Z,10.20
2018-11-14T09:30:31.878Z,10.97
2018-11-14T09:33:00.432Z,9.93
2018-11-14T09:35:29.219Z,10.87
2018-11-14T09:37:59.061Z,8.47
2018-11-14T09:40:28.469Z,7.97
2018-11-14T09:42:56.937Z,8.10
2018-11-14T09:45:26.743Z,8.93
2018-11-14T09:47:55.241Z,8.27
2018-11-14T09:50:25.891Z,8.97
2018-11-14T09:52:55.763Z,7.57
2018-11-14T09:55:24.184Z,7.57
2018-11-14T09:57:52.645Z,8.13
2018-11-14T10:00:22.472Z,8.33
2018-11-14T10:02:52.573Z,8.17
2018-11-14T10:05:22.304Z,8.17
2018-11-14T10:07:50.837Z,7.57
2018-11-14T10:10:20.521Z,6.60
2018-11-14T10:12:49.022Z,7.93
2018-11-14T10:15:19.671Z,7.10
2018-11-14T10:17:48.637Z,6.80
2018-11-14T10:20:21.182Z,8.00
2018-11-14T10:22:49.640Z,5.87
2018-11-14T10:25:18.544Z,7.77
2018-11-14T10:27:47.866Z,7.23
2018-11-14T10:30:21.295Z,7.87
2018-11-14T10:32:50.199Z,7.07
2018-11-14T10:35:18.733Z,7.07
2018-11-14T10:37:47.151Z,6.80
2018-11-14T10:40:18.441Z,6.90
2018-11-14T10:42:46.971Z,6.83
2018-11-14T10:45:16.843Z,6.47
2018-11-14T10:47:45.385Z,7.40
2018-11-14T10:50:16.294Z,6.60
2018-11-14T10:52:44.809Z,7.10
2018-11-14T10:55:14.323Z,7.47
2018-11-14T10:57:42.832Z,7.17
2018-11-14T11:00:31.957Z,7.27
2018-11-14T11:03:06.824Z,5.90
2018-11-14T11:05:40.758Z,5.37
2018-11-14T11:08:14.784Z,6.03
2018-11-14T11:10:52.278Z,5.43
2018-11-14T11:13:26.241Z,6.43
2018-11-14T11:16:00.028Z,6.60
2018-11-14T11:18:30.213Z,6.00
2018-11-14T11:20:58.689Z,6.00
2018-11-14T11:23:27.208Z,6.60
2018-11-14T11:25:55.704Z,6.50
2018-11-14T11:28:24.221Z,5.73
2018-11-14T11:30:52.757Z,6.90
2018-11-14T11:33:21.201Z,6.63
2018-11-14T11:35:49.737Z,6.77
2018-11-14T11:38:18.276Z,6.13
2018-11-14T11:40:46.755Z,5.47
2018-11-14T11:43:15.327Z,6.93
2018-11-14T11:45:43.788Z,6.47
2018-11-14T11:48:12.308Z,6.17
2018-11-14T11:50:40.782Z,6.97
2018-11-14T11:53:09.266Z,7.03
2018-11-14T11:55:37.752Z,6.83
2018-11-14T11:58:06.741Z,6.03
2018-11-14T12:00:35.439Z,5.57
2018-11-14T12:03:03.721Z,6.57
2018-11-14T12:05:32.183Z,6.77
2018-11-14T12:08:00.641Z,6.17
2018-11-14T12:10:29.150Z,6.27
2018-11-14T12:12:57.675Z,7.70
2018-11-14T12:15:26.069Z,6.90
2018-11-14T12:17:54.621Z,6.60
2018-11-14T12:20:23.036Z,7.10
2018-11-14T12:22:51.518Z,7.43
2018-11-14T12:25:19.989Z,7.57
2018-11-14T12:27:48.461Z,7.23
2018-11-14T12:30:18.057Z,7.10
2018-11-14T12:32:46.596Z,6.70
2018-11-14T12:35:18.164Z,6.73
2018-11-14T12:37:46.580Z,6.47
2018-11-14T12:40:15.410Z,7.37
2018-11-14T12:42:43.882Z,7.40
2018-11-14T12:45:13.677Z,7.77
2018-11-14T12:47:42.723Z,7.13
2018-11-14T12:50:12.305Z,6.93
2018-11-14T12:52:41.101Z,6.50
2018-11-14T12:55:11.960Z,7.23
2018-11-14T12:57:40.428Z,7.53
2018-11-14T13:00:11.510Z,5.73
2018-11-14T13:02:40.125Z,6.83
2018-11-14T13:05:09.679Z,8.70
2018-11-14T13:07:38.338Z,6.53
2018-11-14T13:10:08.122Z,7.53
2018-11-14T13:12:36.606Z,7.37
2018-11-14T13:15:06.943Z,7.33
2018-11-14T13:17:35.630Z,7.37
2018-11-14T13:20:04.626Z,7.40
2018-11-14T13:22:33.190Z,8.60
2018-11-14T13:25:01.671Z,7.43
2018-11-14T13:27:30.209Z,7.13
2018-11-14T13:29:58.794Z,6.90
2018-11-14T13:32:27.252Z,6.97
2018-11-14T13:34:55.783Z,6.83
2018-11-14T13:37:24.291Z,6.30
2018-11-14T13:39:52.851Z,7.57
2018-11-14T13:42:21.372Z,7.07
2018-11-14T13:44:50.209Z,7.03
2018-11-14T13:47:19.928Z,6.83
2018-11-14T13:49:50.007Z,5.67
2018-11-14T13:52:18.549Z,6.80
2018-11-14T13:54:47.054Z,5.90
2018-11-14T13:57:15.591Z,5.50
2018-11-14T13:59:44.104Z,5.90
2018-11-14T14:02:12.609Z,6.07
2018-11-14T14:04:41.142Z,6.17
2018-11-14T14:07:09.685Z,5.60
2018-11-14T14:09:38.208Z,4.63
2018-11-14T14:12:06.709Z,5.20
2018-11-14T14:14:35.175Z,4.67
2018-11-14T14:17:03.698Z,4.23
2018-11-14T14:19:32.234Z,4.00
2018-11-14T14:22:00.741Z,4.40
2018-11-14T14:24:29.166Z,4.37
2018-11-14T14:26:57.714Z,4.07
2018-11-14T14:29:26.227Z,5.00
2018-11-14T14:31:54.677Z,3.63
2018-11-14T14:34:23.153Z,4.83
2018-11-14T14:36:51.642Z,5.10
2018-11-14T14:39:20.126Z,3.80
2018-11-14T14:41:48.593Z,4.65
2018-11-14T14:44:17.137Z,4.33
2018-11-14T14:46:45.614Z,3.87
2018-11-14T14:49:14.093Z,3.50
2018-11-14T14:51:42.582Z,3.53
2018-11-14T14:54:11.058Z,3.30
2018-11-14T14:56:39.515Z,2.67
2018-11-14T14:59:07.977Z,3.00
2018-11-14T15:01:36.520Z,2.97
2018-11-14T15:04:05.225Z,2.63
2018-11-14T15:06:33.712Z,3.63
2018-11-14T15:09:02.197Z,3.03
2018-11-14T15:11:30.668Z,2.10
2018-11-14T15:13:59.149Z,1.70
2018-11-14T15:16:27.624Z,2.13
2018-11-14T15:18:56.090Z,2.67
2018-11-14T15:21:24.604Z,2.57
2018-11-14T15:23:53.081Z,3.47
2018-11-14T15:26:21.590Z,3.80
2018-11-14T15:28:50.092Z,3.20
2018-11-14T15:31:18.557Z,3.23
2018-11-14T15:33:47.051Z,10.03
2018-11-14T15:36:15.547Z,14.87
2018-11-14T15:38:44.042Z,16.87
2018-11-14T15:41:12.531Z,24.77
2018-11-14T15:43:41.014Z,20.60
2018-11-14T15:46:09.567Z,17.57
2018-11-14T15:48:38.039Z,12.07
2018-11-14T15:51:06.678Z,8.63
2018-11-14T15:53:35.150Z,7.33
2018-11-14T15:56:03.626Z,5.33
2018-11-14T15:58:32.093Z,3.40
2018-11-14T16:01:01.522Z,3.37
2018-11-14T16:03:30.006Z,1.80
2018-11-14T16:05:58.527Z,2.13
2018-11-14T16:08:27.017Z,2.40
2018-11-14T16:10:58.240Z,2.07
2018-11-14T16:13:26.724Z,1.70
2018-11-14T16:15:55.199Z,2.50
2018-11-14T16:18:23.674Z,2.80
2018-11-14T16:20:52.190Z,2.00
2018-11-14T16:23:21.311Z,1.97
2018-11-14T16:25:50.451Z,2.23
2018-11-14T16:28:18.946Z,2.07
2018-11-14T16:30:48.026Z,1.60
2018-11-14T16:33:17.552Z,1.77
2018-11-14T16:35:48.433Z,2.63
2018-11-14T16:38:19.778Z,2.30
2018-11-14T16:40:48.215Z,2.43
2018-11-14T16:43:16.706Z,2.17
2018-11-14T16:45:45.742Z,2.47
2018-11-14T16:48:14.517Z,2.43
2018-11-14T16:50:44.001Z,2.50
2018-11-14T16:53:13.122Z,2.30
2018-11-14T16:55:42.288Z,2.30
2018-11-14T16:58:10.728Z,2.70
2018-11-14T17:00:40.099Z,1.87
2018-11-14T17:03:08.570Z,1.70
2018-11-14T17:05:37.602Z,2.30
2018-11-14T17:08:09.640Z,2.40
2018-11-14T17:10:38.116Z,3.30
2018-11-14T17:13:07.913Z,2.33
2018-11-14T17:15:36.396Z,2.40
2018-11-14T17:18:04.965Z,2.50
2018-11-14T17:20:33.483Z,3.30
2018-11-14T17:23:02.805Z,3.23
2018-11-14T17:25:36.192Z,2.90
2018-11-14T17:28:04.685Z,2.73
2018-11-14T17:30:33.734Z,2.60
2018-11-14T17:33:03.975Z,3.10
2018-11-14T17:35:32.476Z,2.97
2018-11-14T17:38:00.968Z,3.60
2018-11-14T17:40:29.645Z,3.83
2018-11-14T17:42:58.238Z,3.97
2018-11-14T17:45:28.157Z,4.10
2018-11-14T17:47:57.169Z,4.13
2018-11-14T17:50:30.393Z,3.77
2018-11-14T17:52:59.832Z,3.67
2018-11-14T17:55:28.662Z,3.70
2018-11-14T17:57:57.034Z,3.63
2018-11-14T18:00:27.824Z,4.07
2018-11-14T18:02:56.429Z,3.20
2018-11-14T18:05:27.690Z,3.40
2018-11-14T18:07:56.441Z,3.07
2018-11-14T18:10:27.247Z,3.00
2018-11-14T18:12:56.952Z,3.10
2018-11-14T18:15:25.548Z,3.50
2018-11-14T18:17:54.700Z,3.03
2018-11-14T18:20:25.608Z,3.70
2018-11-14T18:22:54.729Z,4.50
2018-11-14T18:25:23.700Z,4.47
2018-11-14T18:27:52.275Z,5.07
2018-11-14T18:30:22.135Z,5.40
2018-11-14T18:32:51.750Z,4.03
2018-11-14T18:35:21.491Z,4.37
2018-11-14T18:37:50.995Z,4.33
2018-11-14T18:40:34.877Z,4.43
2018-11-14T18:43:03.586Z,4.67
2018-11-14T18:45:33.474Z,5.03
2018-11-14T18:48:02.764Z,4.87
2018-11-14T18:50:31.442Z,6.30
2018-11-14T18:53:00.102Z,4.60
2018-11-14T18:55:30.975Z,4.63
2018-11-14T18:58:00.423Z,4.10
2018-11-14T19:00:31.731Z,4.37
2018-11-14T19:03:01.207Z,4.07
2018-11-14T19:05:29.930Z,4.37
2018-11-14T19:07:58.941Z,4.20
2018-11-14T19:10:29.873Z,4.80
2018-11-14T19:12:58.463Z,4.10
2018-11-14T19:15:28.423Z,4.23
2018-11-14T19:17:58.207Z,4.10
2018-11-14T19:20:27.994Z,4.33
2018-11-14T19:22:57.413Z,4.43
2018-11-14T19:25:27.586Z,4.23
2018-11-14T19:28:06.545Z,3.90
2018-11-14T19:30:36.773Z,4.70
2018-11-14T19:33:05.431Z,4.20
2018-11-14T19:35:34.011Z,4.53
2018-11-14T19:38:02.918Z,3.63
2018-11-14T19:40:32.866Z,5.57
2018-11-14T19:43:02.537Z,3.67
2018-11-14T19:45:35.560Z,3.77
2018-11-14T19:48:04.214Z,4.40
2018-11-14T19:50:32.860Z,4.17
2018-11-14T19:53:01.443Z,5.50
2018-11-14T19:55:30.564Z,4.37
2018-11-14T19:58:00.316Z,3.67
2018-11-14T20:00:30.209Z,4.07
2018-11-14T20:02:58.747Z,3.53
2018-11-14T20:05:27.256Z,4.67
2018-11-14T20:07:55.783Z,5.27
2018-11-14T20:10:25.713Z,7.12
2018-11-14T20:12:54.586Z,5.43
2018-11-14T20:15:26.553Z,6.53
2018-11-14T20:17:55.059Z,6.10
2018-11-14T20:20:25.961Z,5.20
2018-11-14T20:22:54.552Z,5.83
2018-11-14T20:25:23.134Z,4.17
2018-11-14T20:27:51.714Z,4.50
2018-11-14T20:30:26.430Z,5.33
2018-11-14T20:32:55.922Z,6.57
2018-11-14T20:35:25.407Z,4.37
2018-11-14T20:37:53.923Z,4.77
2018-11-14T20:40:22.927Z,4.57
2018-11-14T20:42:52.207Z,5.40
2018-11-14T20:45:27.263Z,5.10
2018-11-14T20:47:55.788Z,4.10
2018-11-14T20:50:25.148Z,4.90
2018-11-14T20:52:55.289Z,4.47
2018-11-14T20:55:23.819Z,5.17
2018-11-14T20:57:52.299Z,4.60
2018-11-14T21:00:36.381Z,6.33
2018-11-14T21:03:05.439Z,4.87
2018-11-14T21:05:33.943Z,5.17
2018-11-14T21:08:02.372Z,5.20
2018-11-14T21:10:32.148Z,5.63
2018-11-14T21:13:01.353Z,5.27
2018-11-14T21:15:31.345Z,5.00
2018-11-14T21:18:00.936Z,5.67
2018-11-14T21:20:29.500Z,5.30
2018-11-14T21:22:58.224Z,6.20
2018-11-14T21:25:27.223Z,5.47
2018-11-14T21:27:56.202Z,4.73
2018-11-14T21:30:25.860Z,4.33
2018-11-14T21:32:54.526Z,5.27
2018-11-14T21:35:26.524Z,5.37
2018-11-14T21:37:56.377Z,5.07
2018-11-14T21:40:24.878Z,5.50
2018-11-14T21:42:54.336Z,6.00
2018-11-14T21:45:24.181Z,5.40
2018-11-14T21:47:58.113Z,5.07
2018-11-14T21:50:27.712Z,5.50
2018-11-14T21:52:57.215Z,6.03
2018-11-14T21:55:25.697Z,6.03
2018-11-14T21:57:54.227Z,5.67
2018-11-14T22:00:25.174Z,6.60
2018-11-14T22:02:55.014Z,6.33
2018-11-14T22:05:23.722Z,4.73
2018-11-14T22:07:52.212Z,6.10
2018-11-14T22:10:22.007Z,5.50
2018-11-14T22:12:50.845Z,5.57
2018-11-14T22:15:20.902Z,5.67
2018-11-14T22:17:49.685Z,5.63
2018-11-14T22:20:19.521Z,5.27
2018-11-14T22:22:48.495Z,6.00
2018-11-14T22:25:18.138Z,6.30
2018-11-14T22:27:46.727Z,6.30
2018-11-14T22:30:21.314Z,6.07
2018-11-14T22:32:49.810Z,5.10
2018-11-14T22:35:19.649Z,5.70
2018-11-14T22:37:49.191Z,6.23
2018-11-14T22:40:18.998Z,5.43
2018-11-14T22:42:48.460Z,5.37
2018-11-14T22:45:21.382Z,6.60
2018-11-14T22:47:50.939Z,5.87
2018-11-14T22:50:20.752Z,6.23
2018-11-14T22:52:49.743Z,5.40
2018-11-14T22:55:19.313Z,6.67
2018-11-14T22:57:48.565Z,6.53
2018-11-14T23:00:22.252Z,6.37
2018-11-14T23:02:51.988Z,6.43
2018-11-14T23:05:20.460Z,5.80
2018-11-14T23:07:50.273Z,6.17
2018-11-14T23:10:20.435Z,6.50
2018-11-14T23:12:49.116Z,6.07
2018-11-14T23:15:18.140Z,6.00
2018-11-14T23:17:46.637Z,5.90
2018-11-14T23:20:16.047Z,5.63
2018-11-14T23:22:45.264Z,6.43
2018-11-14T23:25:14.212Z,6.13
2018-11-14T23:27:44.915Z,5.50
2018-11-14T23:30:14.497Z,5.97
2018-11-14T23:32:44.225Z,4.77
2018-11-14T23:35:32.748Z,6.43
2018-11-14T23:38:05.364Z,6.13
2018-11-14T23:40:33.837Z,5.70
2018-11-14T23:43:02.404Z,5.60
2018-11-14T23:45:31.547Z,5.30
2018-11-14T23:48:00.048Z,6.43
2018-11-14T23:50:29.807Z,5.73
2018-11-14T23:52:59.273Z,5.63
2018-11-14T23:55:28.580Z,5.93
2018-11-14T23:57:57.495Z,5.77
